Time;durP1;ratioP1;P1;durP2;ratioP2;P2;SDS_P1;SDS_P2;PMS_P1;PMS_P2;Temp;Humidity;BMP_temperature;BMP_pressure;BME280_temperature;BME280_humidity;BME280_pressure;Samples;Min_cycle;Max_cycle;Signal;HPM_P1;HPM_P2
2021/05/17 00:00:35;;;;;;;2.95;1.63;;;;;;;11.25;100.00;99570.13;5010474;28;20456;-76
2021/05/17 00:03:01;;;;;;;5.90;1.38;;;;;;;11.19;100.00;99565.25;5001541;28;20124;-76
2021/05/17 00:05:30;;;;;;;3.28;1.48;;;;;;;11.22;100.00;99564.16;5012338;28;20314;-76
2021/05/17 00:07:56;;;;;;;3.88;1.40;;;;;;;11.23;100.00;99574.75;5010221;28;20037;-77
2021/05/17 00:10:22;;;;;;;3.65;1.35;;;;;;;11.29;100.00;99576.09;5002949;28;20517;-77
2021/05/17 00:12:48;;;;;;;2.67;1.52;;;;;;;11.25;100.00;99578.19;5011065;28;20041;-76
2021/05/17 00:15:16;;;;;;;6.25;1.80;;;;;;;11.39;100.00;99576.16;5013027;28;20026;-76
2021/05/17 00:17:43;;;;;;;7.53;2.03;;;;;;;11.30;100.00;99578.63;5011656;28;20038;-76
2021/05/17 00:20:11;;;;;;;3.30;1.27;;;;;;;11.33;100.00;99577.53;5011796;28;20123;-76
2021/05/17 00:22:37;;;;;;;6.15;1.83;;;;;;;11.50;100.00;99574.22;5013628;28;20030;-76
2021/05/17 00:25:03;;;;;;;3.47;1.27;;;;;;;11.31;100.00;99571.41;5011201;28;20045;-76
2021/05/17 00:27:29;;;;;;;3.20;1.65;;;;;;;11.28;100.00;99575.25;5010232;28;20391;-76
2021/05/17 00:29:55;;;;;;;3.40;1.50;;;;;;;11.39;100.00;99576.16;5009572;28;20109;-76
2021/05/17 00:32:21;;;;;;;2.25;1.40;;;;;;;11.38;100.00;99574.44;5014416;28;20037;-76
2021/05/17 00:34:47;;;;;;;3.95;1.92;;;;;;;11.26;100.00;99577.19;5005723;28;20033;-77
2021/05/17 00:37:14;;;;;;;5.90;2.53;;;;;;;11.25;100.00;99575.47;5007641;28;20025;-76
2021/05/17 00:39:41;;;;;;;3.53;1.58;;;;;;;11.29;100.00;99581.47;5011273;28;20032;-76
2021/05/17 00:42:07;;;;;;;7.55;1.50;;;;;;;11.30;100.00;99584.00;5009816;28;20524;-76
2021/05/17 00:44:33;;;;;;;3.92;1.52;;;;;;;11.25;100.00;99575.47;5009280;28;20088;-76
2021/05/17 00:46:59;;;;;;;6.60;1.70;;;;;;;11.25;100.00;99575.47;4993596;28;20061;-76
2021/05/17 00:49:25;;;;;;;2.72;1.92;;;;;;;11.30;100.00;99573.25;5012006;28;20546;-76
2021/05/17 00:51:51;;;;;;;7.60;1.92;;;;;;;11.25;100.00;99570.13;5010137;28;20250;-76
2021/05/17 00:54:17;;;;;;;6.72;1.70;;;;;;;11.31;100.00;99568.72;5018542;28;20041;-76
2021/05/17 00:56:43;;;;;;;8.18;1.80;;;;;;;11.27;100.00;99568.16;5009023;28;20029;-77
2021/05/17 00:59:09;;;;;;;5.55;1.90;;;;;;;11.25;100.00;99569.25;5009688;28;20025;-76
2021/05/17 01:01:35;;;;;;;2.28;1.63;;;;;;;11.40;100.00;99567.09;5012784;28;20041;-77
2021/05/17 01:04:01;;;;;;;3.08;1.83;;;;;;;11.31;100.00;99572.28;5009469;28;20030;-77
2021/05/17 01:06:53;;;;;;;5.75;1.92;;;;;;;11.26;100.00;99566.44;5004271;28;20042;-77
2021/05/17 01:09:20;;;;;;;6.03;1.80;;;;;;;11.21;100.00;99574.06;5004919;28;20034;-76
2021/05/17 01:11:47;;;;;;;4.82;1.85;;;;;;;11.27;100.00;99578.91;5021382;28;20137;-76
2021/05/17 01:14:13;;;;;;;3.90;1.50;;;;;;;11.27;100.00;99573.53;4993424;28;20115;-76
2021/05/17 01:16:41;;;;;;;2.38;1.30;;;;;;;11.22;100.00;99573.06;4997897;28;20041;-77
2021/05/17 01:19:20;;;;;;;6.15;1.50;;;;;;;11.27;100.00;99578.91;5001321;28;20390;-76
2021/05/17 01:21:52;;;;;;;3.53;1.33;;;;;;;11.26;100.00;99573.66;5012247;28;20080;-76
2021/05/17 01:24:20;;;;;;;4.72;1.38;;;;;;;11.33;100.00;99577.53;5011275;28;20104;-76
2021/05/17 01:26:46;;;;;;;2.92;1.58;;;;;;;11.34;100.00;99569.34;5014780;28;20033;-76
2021/05/17 01:29:12;;;;;;;2.05;1.00;;;;;;;11.32;100.00;99573.13;5013157;28;20506;-77
2021/05/17 01:31:40;;;;;;;3.08;1.35;;;;;;;11.24;100.00;99568.41;4995931;28;20036;-76
2021/05/17 01:34:07;;;;;;;7.75;1.17;;;;;;;11.24;100.00;99571.09;5009819;28;20057;-76
2021/05/17 01:36:36;;;;;;;1.48;1.08;;;;;;;11.17;100.00;99567.22;5008492;28;20048;-76
2021/05/17 01:39:04;;;;;;;4.35;1.42;;;;;;;11.20;100.00;99569.66;5008759;28;20047;-76
2021/05/17 01:41:29;;;;;;;2.92;1.10;;;;;;;11.16;100.00;99580.81;5009151;28;20026;-76
2021/05/17 01:43:57;;;;;;;2.60;0.93;;;;;;;11.13;100.00;99571.16;5009690;28;20494;-76
2021/05/17 01:46:30;;;;;;;3.53;1.40;;;;;;;11.12;100.00;99569.44;5009693;28;21216;-77
2021/05/17 01:49:16;;;;;;;5.90;2.38;;;;;;;11.06;100.00;99569.97;5000789;28;20469;-75
2021/05/17 01:51:45;;;;;;;4.22;1.27;;;;;;;11.18;100.00;99574.31;5012953;28;20039;-76
2021/05/17 01:54:11;;;;;;;3.25;1.17;;;;;;;11.10;100.00;99571.44;5008474;28;20117;-76
2021/05/17 01:56:39;;;;;;;5.38;0.98;;;;;;;11.16;100.00;99575.44;5004359;28;20038;-77
2021/05/17 01:59:27;;;;;;;2.58;1.08;;;;;;;11.15;100.00;99569.19;5009959;28;20040;-76
2021/05/17 02:01:52;;;;;;;2.08;0.70;;;;;;;11.08;100.00;99568.00;5004250;28;20122;-76
2021/05/17 02:04:18;;;;;;;4.38;1.17;;;;;;;11.05;100.00;99570.13;4992336;28;20255;-76
2021/05/17 02:06:44;;;;;;;4.90;0.90;;;;;;;11.08;100.00;99573.38;4990618;28;20083;-77
2021/05/17 02:09:10;;;;;;;2.65;0.90;;;;;;;11.07;100.00;99566.31;4990755;28;20095;-77
2021/05/17 02:11:36;;;;;;;0.90;0.73;;;;;;;11.06;100.00;99572.66;4989424;28;20037;-76
2021/05/17 02:14:12;;;;;;;2.28;0.80;;;;;;;11.02;100.00;99573.91;4984880;28;20038;-76
2021/05/17 02:16:38;;;;;;;3.45;1.10;;;;;;;11.00;100.00;99569.63;4977214;28;20453;-76
2021/05/17 02:19:04;;;;;;;4.00;0.90;;;;;;;11.05;100.00;99572.81;4987885;28;20033;-76
2021/05/17 02:21:30;;;;;;;2.90;1.00;;;;;;;11.03;100.00;99572.06;5003230;28;20026;-76
2021/05/17 02:23:55;;;;;;;2.92;0.95;;;;;;;10.96;100.00;99577.09;5009400;28;20042;-77
2021/05/17 02:26:21;;;;;;;0.93;0.70;;;;;;;11.05;100.00;99579.00;4991794;28;20037;-77
2021/05/17 02:28:53;;;;;;;3.63;1.58;;;;;;;11.08;100.00;99578.75;5005946;28;20170;-76
2021/05/17 02:31:19;;;;;;;6.20;0.95;;;;;;;10.96;100.00;99585.16;4990923;28;20033;-77
2021/05/17 02:33:46;;;;;;;4.80;1.20;;;;;;;11.06;100.00;99583.41;5008861;28;20120;-76
2021/05/17 02:36:12;;;;;;;4.45;0.95;;;;;;;11.01;100.00;99579.41;5007379;28;20085;-76
2021/05/17 02:38:38;;;;;;;2.65;1.15;;;;;;;11.13;100.00;99587.28;5007551;28;20029;-76
2021/05/17 02:41:05;;;;;;;1.38;0.77;;;;;;;11.05;100.00;99581.69;5008606;28;20022;-77
2021/05/17 02:43:32;;;;;;;3.47;1.10;;;;;;;10.97;100.00;99581.50;5024451;28;20375;-76
2021/05/17 02:46:12;;;;;;;1.80;0.77;;;;;;;10.94;100.00;99587.97;5010089;28;20033;-76
2021/05/17 02:48:44;;;;;;;2.25;0.80;;;;;;;10.89;100.00;99586.66;5008441;28;20103;-75
2021/05/17 02:51:11;;;;;;;3.45;1.00;;;;;;;10.92;100.00;99589.09;5005117;28;20037;-76
2021/05/17 02:53:37;;;;;;;4.15;1.02;;;;;;;11.11;100.00;99591.09;5012797;28;20037;-76
2021/05/17 02:56:09;;;;;;;3.88;0.93;;;;;;;11.04;100.00;99588.06;5010859;28;20367;-76
2021/05/17 02:58:39;;;;;;;1.30;0.82;;;;;;;10.93;100.00;99580.03;5010888;28;20029;-76
2021/05/17 03:01:20;;;;;;;2.00;0.80;;;;;;;10.90;100.00;99585.69;4991696;28;20029;-76
2021/05/17 03:03:48;;;;;;;2.88;1.20;;;;;;;10.85;100.00;99590.59;5009568;28;20129;-76
2021/05/17 03:06:29;;;;;;;3.08;1.00;;;;;;;10.85;100.00;99588.75;5009611;28;20022;-77
2021/05/17 03:08:59;;;;;;;3.45;0.93;;;;;;;10.86;100.00;99594.97;5006362;28;20041;-76
2021/05/17 03:11:29;;;;;;;6.55;1.00;;;;;;;10.87;100.00;99592.13;5010479;28;20036;-76
2021/05/17 03:13:58;;;;;;;5.13;1.05;;;;;;;10.91;100.00;99588.25;5002039;28;20498;-76
2021/05/17 03:16:25;;;;;;;3.83;0.93;;;;;;;10.97;100.00;99588.69;5001086;28;20044;-76
2021/05/17 03:18:54;;;;;;;3.40;0.82;;;;;;;10.90;100.00;99586.53;5007831;28;20395;-76
2021/05/17 03:21:22;;;;;;;3.58;1.25;;;;;;;11.16;100.00;99587.03;5004437;28;20037;-76
2021/05/17 03:23:49;;;;;;;3.03;0.90;;;;;;;11.01;100.00;99593.69;5011451;28;20021;-76
2021/05/17 03:26:19;;;;;;;1.42;0.77;;;;;;;10.90;100.00;99596.41;5003594;28;20030;-76
2021/05/17 03:28:45;;;;;;;2.67;1.15;;;;;;;10.95;100.00;99591.50;4986493;28;20042;-76
2021/05/17 03:31:11;;;;;;;3.75;0.95;;;;;;;11.07;100.00;99597.69;5006517;28;20674;-77
2021/05/17 03:33:36;;;;;;;4.85;0.80;;;;;;;11.02;100.00;99595.38;5016386;28;20033;-76
2021/05/17 03:36:02;;;;;;;5.15;1.38;;;;;;;10.93;100.00;99601.50;5008825;28;20066;-76
2021/05/17 03:38:28;;;;;;;3.50;1.00;;;;;;;11.07;100.00;99598.53;5007427;28;20112;-76
2021/05/17 03:40:53;;;;;;;6.80;1.27;;;;;;;10.96;100.00;99595.91;5007213;28;20522;-77
2021/05/17 03:43:18;;;;;;;5.03;1.30;;;;;;;10.94;100.00;99589.78;5005952;28;20029;-77
2021/05/17 03:45:44;;;;;;;3.78;1.25;;;;;;;10.97;100.00;99597.59;4984089;28;20037;-77
2021/05/17 03:48:09;;;;;;;2.42;1.00;;;;;;;10.91;100.00;99603.50;4994268;28;20033;-76
2021/05/17 03:50:35;;;;;;;7.82;1.20;;;;;;;10.90;100.00;99596.41;5007246;28;20028;-76
2021/05/17 03:53:00;;;;;;;3.50;1.20;;;;;;;10.98;100.00;99595.78;5010289;28;20045;-76
2021/05/17 03:55:26;;;;;;;8.15;1.20;;;;;;;10.98;100.00;99588.56;5006581;28;20057;-76
2021/05/17 03:57:55;;;;;;;3.80;1.33;;;;;;;10.92;100.00;99591.78;5009365;28;20073;-77
2021/05/17 04:00:20;;;;;;;1.88;1.20;;;;;;;10.95;100.00;99592.34;5007647;28;20033;-77
2021/05/17 04:02:46;;;;;;;2.22;1.55;;;;;;;10.97;100.00;99594.94;5008809;28;20038;-77
2021/05/17 04:13:25;;;;;;;6.43;1.48;;;;;;;11.16;100.00;99597.78;4998603;28;20069;-76
2021/05/17 04:15:52;;;;;;;5.78;1.60;;;;;;;11.21;100.00;99611.66;5007774;28;20506;-76
2021/05/17 04:18:19;;;;;;;6.13;1.50;;;;;;;11.23;100.00;99609.66;5009132;28;20057;-76
2021/05/17 04:20:46;;;;;;;9.07;1.70;;;;;;;11.21;100.00;99606.28;5014115;28;20478;-76
2021/05/17 04:23:11;;;;;;;5.00;1.80;;;;;;;11.28;100.00;99612.00;5009040;28;20034;-76
2021/05/17 04:25:37;;;;;;;5.22;2.00;;;;;;;11.30;100.00;99615.38;5009915;28;20097;-77
2021/05/17 04:28:03;;;;;;;4.90;1.55;;;;;;;11.33;100.00;99616.00;4994336;28;20034;-76
2021/05/17 04:30:29;;;;;;;5.20;1.30;;;;;;;11.41;100.00;99617.19;5008001;28;20109;-76
2021/05/17 04:32:54;;;;;;;3.85;1.50;;;;;;;11.34;100.00;99617.69;5010349;28;20105;-76
2021/05/17 04:35:20;;;;;;;1.30;1.20;;;;;;;11.31;100.00;99617.09;5011039;28;20030;-76
2021/05/17 04:37:45;;;;;;;6.45;2.25;;;;;;;11.37;100.00;99621.94;5009136;28;20038;-76
2021/05/17 04:40:12;;;;;;;3.55;1.70;;;;;;;11.44;100.00;99619.59;5011971;28;20533;-76
2021/05/17 04:42:37;;;;;;;4.13;1.38;;;;;;;11.47;100.00;99622.03;4990275;28;20457;-76
2021/05/17 04:45:05;;;;;;;7.40;1.30;;;;;;;11.50;100.00;99619.06;5012624;28;20060;-76
2021/05/17 04:47:30;;;;;;;2.28;1.27;;;;;;;11.55;100.00;99624.88;5009100;28;20104;-76
2021/05/17 04:49:56;;;;;;;8.55;1.52;;;;;;;11.56;100.00;99627.44;5006683;28;20033;-75
2021/05/17 04:52:21;;;;;;;3.85;1.33;;;;;;;11.63;100.00;99622.41;5009383;28;20469;-76
2021/05/17 04:54:47;;;;;;;4.13;1.60;;;;;;;11.59;100.00;99626.34;5010049;28;20033;-78
2021/05/17 04:57:12;;;;;;;5.53;1.50;;;;;;;11.70;100.00;99623.59;4995814;28;20037;-78
2021/05/17 04:59:38;;;;;;;6.07;1.60;;;;;;;11.65;100.00;99626.69;5009546;28;20032;-78
2021/05/17 05:02:06;;;;;;;4.82;1.50;;;;;;;11.67;100.00;99622.00;5008729;28;20034;-78
2021/05/17 05:04:32;;;;;;;3.20;1.20;;;;;;;11.67;100.00;99619.31;4994370;28;20116;-77
2021/05/17 05:06:57;;;;;;;9.35;1.73;;;;;;;11.74;100.00;99638.47;5009345;28;20105;-78
2021/05/17 05:09:24;;;;;;;5.68;1.50;;;;;;;11.83;100.00;99634.16;5007939;28;20030;-78
2021/05/17 05:11:49;;;;;;;3.53;1.38;;;;;;;11.77;100.00;99630.16;5009160;28;20033;-77
2021/05/17 05:14:15;;;;;;;3.42;1.38;;;;;;;11.89;100.00;99634.47;5009104;28;20083;-76
2021/05/17 05:16:40;;;;;;;5.43;1.40;;;;;;;11.89;100.00;99637.19;5005270;28;20033;-78
2021/05/17 05:19:06;;;;;;;4.65;1.45;;;;;;;11.98;100.00;99633.66;5014310;28;20060;-77
2021/05/17 05:21:33;;;;;;;7.88;1.40;;;;;;;12.04;100.00;99633.13;5009907;28;20513;-77
2021/05/17 05:23:59;;;;;;;6.13;1.58;;;;;;;12.13;100.00;99632.34;5010484;28;20482;-76
2021/05/17 05:26:46;;;;;;;3.80;1.42;;;;;;;12.27;100.00;99632.97;5005709;28;20041;-76
2021/05/17 05:34:09;;;;;;;4.43;1.23;;;;;;;12.31;100.00;99631.69;5007893;28;20402;-76
2021/05/17 05:36:34;;;;;;;6.05;1.50;;;;;;;12.37;100.00;99631.16;5009460;28;20042;-77
2021/05/17 05:39:00;;;;;;;6.93;2.00;;;;;;;12.39;100.00;99634.56;5008919;28;20402;-77
2021/05/17 05:41:26;;;;;;;4.75;2.05;;;;;;;12.48;99.12;99636.41;4991661;28;20038;-76
2021/05/17 05:43:52;;;;;;;8.48;1.42;;;;;;;12.46;100.00;99630.34;5006289;28;20030;-76
2021/05/17 05:46:17;;;;;;;4.70;1.40;;;;;;;12.45;98.11;99631.31;5007833;28;20041;-76
2021/05/17 05:48:49;;;;;;;9.63;1.80;;;;;;;12.36;97.74;99632.97;5010172;28;20036;-76
2021/05/17 05:51:18;;;;;;;3.60;1.60;;;;;;;12.39;98.26;99623.81;5009568;28;20080;-77
2021/05/17 05:53:44;;;;;;;6.85;1.45;;;;;;;12.36;97.23;99637.50;5014615;28;20030;-75
2021/05/17 05:56:10;;;;;;;6.45;1.70;;;;;;;12.36;97.10;99637.50;5007356;28;20025;-76
2021/05/17 05:58:36;;;;;;;6.00;1.83;;;;;;;12.35;98.22;99638.50;5016690;28;20072;-76
2021/05/17 06:01:02;;;;;;;6.25;2.08;;;;;;;12.40;98.52;99637.13;5007935;28;20069;-76
2021/05/17 06:03:27;;;;;;;5.82;1.38;;;;;;;12.60;98.61;99643.41;5007743;28;20088;-76
2021/05/17 06:05:53;;;;;;;6.50;1.40;;;;;;;12.55;95.95;99651.88;5007356;28;20118;-76
2021/05/17 06:08:18;;;;;;;8.30;2.17;;;;;;;12.63;98.01;99648.53;4987167;28;20022;-76
2021/05/17 06:10:44;;;;;;;7.20;1.20;;;;;;;12.55;98.77;99653.72;5010846;28;20065;-76
2021/05/17 06:13:09;;;;;;;4.25;1.40;;;;;;;12.66;96.48;99650.91;5008334;28;20061;-77
2021/05/17 06:15:36;;;;;;;6.15;1.50;;;;;;;12.63;96.96;99651.22;5007831;28;20033;-77
2021/05/17 06:18:01;;;;;;;8.48;1.58;;;;;;;12.70;96.19;99656.91;5014334;28;20680;-76
2021/05/17 06:20:27;;;;;;;8.75;1.98;;;;;;;12.81;95.19;99659.47;5011940;28;20112;-76
2021/05/17 06:22:53;;;;;;;11.93;1.77;;;;;;;12.84;95.06;99660.03;5009011;28;20083;-76
2021/05/17 06:25:19;;;;;;;8.05;1.60;;;;;;;12.87;93.93;99664.28;5007557;28;20482;-77
2021/05/17 06:27:44;;;;;;;6.80;2.63;;;;;;;12.98;94.73;99662.34;5004557;28;20088;-76
2021/05/17 06:30:14;;;;;;;9.93;1.80;;;;;;;12.95;92.89;99659.94;4987977;28;20422;-76
2021/05/17 06:32:40;;;;;;;7.07;1.60;;;;;;;12.86;92.55;99659.91;5007261;28;20145;-77
2021/05/17 06:35:09;;;;;;;10.25;2.40;;;;;;;12.94;93.64;99666.31;5007810;28;20033;-76
2021/05/17 06:37:34;;;;;;;8.23;1.40;;;;;;;13.01;93.22;99665.75;5006266;28;20513;-77
2021/05/17 06:40:00;;;;;;;11.32;1.50;;;;;;;13.09;91.91;99672.13;5005689;28;20036;-77
2021/05/17 06:42:26;;;;;;;7.90;1.30;;;;;;;12.97;92.65;99678.63;5008596;28;20034;-76
2021/05/17 06:44:52;;;;;;;6.00;1.33;;;;;;;13.04;93.60;99677.09;5004081;28;20022;-76
2021/05/17 06:47:18;;;;;;;7.05;1.88;;;;;;;13.13;93.36;99675.44;5007773;28;20029;-76
2021/05/17 06:49:44;;;;;;;9.18;1.77;;;;;;;13.10;92.18;99675.66;5007693;28;20482;-77
2021/05/17 06:52:13;;;;;;;10.05;1.30;;;;;;;13.05;91.51;99683.31;5007339;28;20508;-76
2021/05/17 06:54:39;;;;;;;8.50;1.10;;;;;;;13.20;89.30;99684.66;5005372;28;20554;-77
2021/05/17 06:59:40;;;;;;;8.07;2.33;;;;;;;13.21;90.58;99689.88;5008922;28;20033;-78
2021/05/17 07:02:10;;;;;;;2.97;0.93;;;;;;;13.13;90.51;99692.44;5006843;28;20034;-77
2021/05/17 07:04:38;;;;;;;8.98;1.85;;;;;;;13.19;89.69;99683.81;5006849;28;20092;-77
2021/05/17 07:07:06;;;;;;;3.63;1.20;;;;;;;13.15;88.86;99690.44;5006300;28;20070;-77
2021/05/17 07:12:17;;;;;;;4.88;1.13;;;;;;;13.40;88.92;99689.06;5012094;28;20113;-76
2021/05/17 07:14:42;;;;;;;5.18;1.20;;;;;;;13.56;88.42;99691.19;5007363;28;20021;-76
2021/05/17 07:17:08;;;;;;;6.50;1.45;;;;;;;13.66;87.25;99694.72;5004054;28;20501;-77
2021/05/17 07:19:34;;;;;;;4.25;1.15;;;;;;;13.80;86.84;99696.13;5007776;28;20500;-76
2021/05/17 07:24:44;;;;;;;3.83;1.40;;;;;;;14.08;84.14;99700.63;5007385;28;20026;-76
2021/05/17 07:27:09;;;;;;;5.55;1.65;;;;;;;14.01;83.84;99691.44;4992488;28;20036;-76
2021/05/17 07:29:37;;;;;;;4.85;0.90;;;;;;;14.03;84.40;99694.81;5008128;28;20696;-76
2021/05/17 07:32:06;;;;;;;2.75;0.70;;;;;;;14.03;83.49;99692.13;5005821;28;20057;-76
2021/05/17 07:34:34;;;;;;;4.75;1.27;;;;;;;14.48;82.52;99693.16;5011700;28;20041;-75
2021/05/17 07:37:00;;;;;;;5.50;1.05;;;;;;;14.50;81.20;99696.53;5006009;28;20044;-76
2021/05/17 07:39:26;;;;;;;5.75;1.38;;;;;;;14.46;83.00;99687.03;5007505;28;20116;-77
2021/05/17 07:41:51;;;;;;;12.70;1.60;;;;;;;14.47;82.68;99690.59;5007602;28;20070;-76
2021/05/17 07:44:17;;;;;;;4.43;1.40;;;;;;;14.45;81.14;99693.44;5006713;28;20108;-76
2021/05/17 07:46:42;;;;;;;3.22;0.90;;;;;;;14.57;82.77;99686.84;5006117;28;20033;-77
2021/05/17 07:49:13;;;;;;;2.30;0.80;;;;;;;14.71;81.84;99693.59;5010112;28;20113;-76
2021/05/17 07:51:45;;;;;;;4.50;0.93;;;;;;;14.68;78.89;99693.06;5010286;28;20566;-77
2021/05/17 07:54:12;;;;;;;9.82;1.80;;;;;;;14.81;80.26;99688.16;5007224;28;20037;-77
2021/05/17 07:56:38;;;;;;;5.32;0.90;;;;;;;14.86;80.42;99696.66;5010363;28;20601;-76
2021/05/17 07:59:05;;;;;;;3.22;0.70;;;;;;;14.84;78.98;99690.56;5010345;28;20471;-76
2021/05/17 08:01:30;;;;;;;3.15;0.70;;;;;;;14.64;79.29;99692.50;5011214;28;20104;-76
2021/05/17 08:03:56;;;;;;;4.05;0.80;;;;;;;14.60;79.17;99690.25;5007295;28;20435;-76
2021/05/17 08:06:24;;;;;;;3.10;1.00;;;;;;;14.53;78.52;99707.06;5010039;28;20030;-76
2021/05/17 08:08:49;;;;;;;6.95;0.80;;;;;;;14.50;78.72;99695.72;5001914;28;20476;-77
2021/05/17 08:11:14;;;;;;;5.68;1.35;;;;;;;14.32;78.78;99698.28;5008843;28;20045;-76
2021/05/17 08:13:40;;;;;;;6.68;0.93;;;;;;;14.27;80.15;99705.97;5009978;28;20044;-76
2021/05/17 08:16:07;;;;;;;3.60;0.70;;;;;;;14.22;84.06;99719.06;5010801;28;20033;-76
2021/05/17 08:18:34;;;;;;;2.25;0.93;;;;;;;13.96;88.96;99709.88;5012467;28;20021;-76
2021/05/17 08:21:00;;;;;;;3.80;1.00;;;;;;;13.81;91.94;99714.03;5012118;28;20036;-77
2021/05/17 08:23:25;;;;;;;5.22;0.93;;;;;;;13.74;94.84;99714.59;5012429;28;20035;-77
2021/05/17 08:25:51;;;;;;;3.80;1.45;;;;;;;13.78;96.59;99710.63;5013280;28;20529;-77
2021/05/17 08:28:16;;;;;;;3.70;0.93;;;;;;;14.02;95.33;99712.84;5010669;28;20057;-77
2021/05/17 08:30:43;;;;;;;4.90;0.90;;;;;;;13.97;94.57;99719.69;5010519;28;20028;-77
2021/05/17 08:33:10;;;;;;;3.83;0.63;;;;;;;14.10;93.95;99717.53;4992246;28;20030;-77
2021/05/17 08:35:37;;;;;;;3.05;0.93;;;;;;;14.26;95.73;99715.06;5009408;28;20162;-78
2021/05/17 08:38:03;;;;;;;2.22;1.10;;;;;;;14.35;96.33;99724.13;5012421;28;20092;-77
2021/05/17 08:40:34;;;;;;;3.63;1.05;;;;;;;14.48;94.25;99714.75;5012211;28;20026;-78
2021/05/17 08:42:59;;;;;;;8.52;1.38;;;;;;;15.03;92.51;99728.28;5012260;28;20393;-77
2021/05/17 08:45:25;;;;;;;4.40;0.70;;;;;;;15.01;86.11;99716.75;5014580;28;20026;-77
2021/05/17 08:47:51;;;;;;;2.60;0.80;;;;;;;15.15;86.39;99718.94;4999933;28;20022;-77
2021/05/17 08:50:16;;;;;;;2.42;0.70;;;;;;;14.93;85.61;99719.38;4994232;28;20486;-78
2021/05/17 08:52:42;;;;;;;4.60;1.38;;;;;;;15.05;87.03;99723.59;5010400;28;20088;-78
2021/05/17 08:55:10;;;;;;;5.10;0.93;;;;;;;15.15;86.91;99712.69;5010613;28;20037;-77
2021/05/17 08:57:36;;;;;;;3.42;1.10;;;;;;;15.11;83.92;99711.31;5010566;28;20029;-77
2021/05/17 09:00:06;;;;;;;3.90;1.02;;;;;;;15.50;85.53;99719.97;5011333;28;20029;-77
2021/05/17 09:02:31;;;;;;;5.28;1.15;;;;;;;16.16;82.42;99721.28;4995453;28;20068;-76
2021/05/17 09:05:29;;;;;;;3.92;1.02;;;;;;;16.60;80.37;99717.69;4994218;28;20457;-78
2021/05/17 09:07:59;;;;;;;3.40;1.10;;;;;;;17.05;76.63;99715.47;4999015;28;20099;-77
2021/05/17 09:10:35;;;;;;;2.33;0.77;;;;;;;16.98;73.65;99715.28;5007718;28;20502;-77
2021/05/17 09:13:07;;;;;;;3.33;0.90;;;;;;;16.61;73.30;99717.50;5009785;28;20184;-77
2021/05/17 09:15:46;;;;;;;2.10;0.95;;;;;;;16.28;74.72;99713.72;4994121;28;20030;-77
2021/05/17 09:18:21;;;;;;;4.80;1.20;;;;;;;16.68;76.25;99710.41;5009294;28;20493;-77
2021/05/17 09:20:51;;;;;;;4.03;0.77;;;;;;;16.58;75.53;99710.53;5011248;28;20164;-77
2021/05/17 09:23:30;;;;;;;3.75;1.35;;;;;;;16.68;71.98;99715.00;5015703;28;20443;-77
2021/05/17 09:25:59;;;;;;;5.05;1.50;;;;;;;16.41;73.62;99713.31;5009024;28;20564;-77
2021/05/17 09:28:46;;;;;;;6.07;1.35;;;;;;;16.61;74.27;99703.09;4992963;28;20038;-77
2021/05/17 09:31:16;;;;;;;7.20;1.02;;;;;;;16.74;72.20;99708.91;4995775;28;20124;-78
2021/05/17 09:33:44;;;;;;;8.73;1.55;;;;;;;16.89;68.92;99702.72;5011158;28;20177;-77
2021/05/17 09:36:27;;;;;;;3.28;1.52;;;;;;;16.95;68.83;99701.22;5008503;28;20025;-77
2021/05/17 09:39:01;;;;;;;4.78;1.10;;;;;;;17.37;66.69;99704.72;5012342;28;20061;-77
2021/05/17 09:41:36;;;;;;;7.50;1.98;;;;;;;17.60;63.22;99694.09;5011746;28;20061;-77
2021/05/17 09:44:02;;;;;;;5.95;0.88;;;;;;;18.14;66.47;99699.88;5021700;28;20045;-78
2021/05/17 09:46:28;;;;;;;4.22;0.88;;;;;;;18.08;63.69;99700.56;5011778;28;20040;-77
2021/05/17 09:48:54;;;;;;;2.13;0.90;;;;;;;17.85;64.52;99715.81;5008713;28;20474;-77
2021/05/17 09:51:20;;;;;;;8.90;2.28;;;;;;;17.59;65.51;99708.66;4993641;28;20045;-77
2021/05/17 09:53:48;;;;;;;5.38;0.98;;;;;;;17.16;66.93;99695.34;5009113;28;20038;-75
2021/05/17 09:56:16;;;;;;;2.97;0.75;;;;;;;17.15;68.49;99699.94;5012170;28;20036;-77
2021/05/17 09:58:44;;;;;;;3.90;0.90;;;;;;;16.61;70.36;99717.50;5010018;28;20064;-77
2021/05/17 10:01:13;;;;;;;3.13;0.70;;;;;;;16.13;73.42;99727.00;5011228;28;20517;-77
2021/05/17 10:03:50;;;;;;;3.78;0.80;;;;;;;15.86;75.11;99732.50;4998547;28;20108;-76
2021/05/17 10:06:23;;;;;;;0.57;0.45;;;;;;;16.03;75.13;99726.25;5009942;28;20037;-76
2021/05/17 10:08:50;;;;;;;2.72;0.43;;;;;;;15.98;76.90;99722.31;5013788;28;20030;-76
2021/05/17 10:11:17;;;;;;;3.88;0.95;;;;;;;16.11;78.20;99711.91;5007602;28;20041;-77
2021/05/17 10:13:43;;;;;;;2.97;0.60;;;;;;;16.46;77.20;99719.09;5011920;28;20038;-77
2021/05/17 10:16:16;;;;;;;2.15;0.68;;;;;;;16.19;75.85;99726.34;5008592;28;20037;-77
2021/05/17 10:18:44;;;;;;;4.28;0.80;;;;;;;16.15;76.55;99711.44;5023463;28;20079;-78
2021/05/17 10:21:12;;;;;;;4.90;0.60;;;;;;;15.95;75.83;99718.06;4991729;28;20034;-76
2021/05/17 10:23:41;;;;;;;4.50;0.88;;;;;;;16.00;76.18;99715.72;5010322;28;20037;-76
2021/05/17 10:26:29;;;;;;;2.95;0.85;;;;;;;15.73;78.04;99722.13;5010594;28;20532;-77
2021/05/17 10:28:59;;;;;;;3.10;0.80;;;;;;;15.62;78.17;99713.34;5006788;28;20073;-74
2021/05/17 10:31:25;;;;;;;1.63;0.77;;;;;;;15.45;80.67;99719.59;5009993;28;20025;-77
2021/05/17 10:34:08;;;;;;;4.35;0.80;;;;;;;15.50;81.57;99723.53;5011400;28;20041;-77
2021/05/17 10:36:55;;;;;;;2.97;0.83;;;;;;;15.82;82.88;99731.13;5010209;28;20080;-77
2021/05/17 10:39:44;;;;;;;2.10;0.65;;;;;;;16.51;82.72;99731.13;5009650;28;20273;-77
2021/05/17 10:48:29;;;;;;;0.65;0.40;;;;;;;16.60;72.52;99707.69;5010465;28;20119;-76
2021/05/17 10:51:16;;;;;;;1.48;0.40;;;;;;;16.64;72.25;99725.31;5009467;28;20041;-76
2021/05/17 10:53:43;;;;;;;1.65;0.40;;;;;;;16.56;71.96;99722.50;5010016;28;20033;-77
2021/05/17 10:56:10;;;;;;;1.65;0.40;;;;;;;16.69;75.85;99728.38;5009447;28;20099;-77
2021/05/17 11:02:00;;;;;;;2.25;1.00;;;;;;;16.53;75.62;99730.97;5004479;28;20038;-77
2021/05/17 11:04:30;;;;;;;2.53;1.35;;;;;;;16.40;75.85;99728.69;5012496;28;20041;-77
2021/05/17 11:07:14;;;;;;;4.82;0.70;;;;;;;16.33;77.60;99721.38;5004405;28;20038;-78
2021/05/17 11:10:01;;;;;;;1.92;0.75;;;;;;;16.41;77.26;99719.56;5010304;28;20044;-77
2021/05/17 11:12:26;;;;;;;2.97;0.90;;;;;;;16.40;79.57;99728.69;4986426;28;20053;-78
2021/05/17 11:15:01;;;;;;;3.55;0.70;;;;;;;15.99;79.82;99735.66;5008662;28;20125;-78
2021/05/17 11:17:26;;;;;;;1.70;0.50;;;;;;;15.95;82.40;99728.88;5008584;28;20080;-77
2021/05/17 11:19:52;;;;;;;5.15;1.05;;;;;;;15.99;85.57;99729.41;5002910;28;20029;-77
2021/05/17 11:22:17;;;;;;;5.68;1.27;;;;;;;15.77;83.64;99733.47;5010528;28;20662;-78
2021/05/17 11:24:46;;;;;;;3.88;0.75;;;;;;;15.74;86.73;99741.88;5008613;28;20080;-77
2021/05/17 11:27:12;;;;;;;6.07;0.93;;;;;;;15.31;86.55;99729.94;5009486;28;20034;-77
2021/05/17 11:29:38;;;;;;;1.85;0.82;;;;;;;15.28;88.92;99735.66;4993801;28;20502;-78
2021/05/17 11:32:13;;;;;;;2.90;0.90;;;;;;;15.28;91.99;99738.38;4996572;28;20064;-77
2021/05/17 11:34:58;;;;;;;2.00;0.73;;;;;;;15.54;89.83;99737.66;5011624;28;20041;-77
2021/05/17 11:37:24;;;;;;;4.43;1.00;;;;;;;15.60;90.02;99734.31;5006979;28;20041;-78
2021/05/17 11:39:49;;;;;;;3.78;0.95;;;;;;;15.60;90.16;99734.31;5013993;28;20038;-77
2021/05/17 11:42:18;;;;;;;3.00;0.70;;;;;;;15.46;92.68;99743.78;5012984;28;20084;-77
2021/05/17 11:45:09;;;;;;;3.45;1.00;;;;;;;15.17;92.92;99737.72;5016071;28;20088;-78
2021/05/17 11:47:35;;;;;;;2.58;0.80;;;;;;;14.98;94.80;99744.94;5009833;28;20048;-78
2021/05/17 11:50:02;;;;;;;1.40;0.90;;;;;;;14.97;94.53;99753.19;5012937;28;20033;-79
2021/05/17 11:52:30;;;;;;;3.60;1.17;;;;;;;14.86;96.17;99729.94;5002016;28;20088;-78
2021/05/17 11:54:59;;;;;;;4.00;1.10;;;;;;;14.71;97.53;99744.06;5013926;28;20087;-78
2021/05/17 11:57:30;;;;;;;2.95;1.15;;;;;;;14.68;98.55;99734.44;5012554;28;20397;-77
2021/05/17 11:59:59;;;;;;;2.13;1.08;;;;;;;14.78;97.67;99739.78;5007626;28;20026;-76
2021/05/17 12:02:25;;;;;;;5.28;1.35;;;;;;;14.79;97.66;99728.84;5010309;28;20030;-76
2021/05/17 12:04:51;;;;;;;4.50;2.05;;;;;;;14.66;97.96;99727.47;5028708;28;20471;-77